Time;durP1;ratioP1;P1;durP2;ratioP2;P2;SDS_P1;SDS_P2;PMS_P1;PMS_P2;Temp;Humidity;BMP_temperature;BMP_pressure;BME280_temperature;BME280_humidity;BME280_pressure;Samples;Min_cycle;Max_cycle;Signal;HPM_P1;HPM_P2
2022/07/11 00:00:23;;;;;;;5.26;1.17;;;;;;;;;;342614;157;857370;-63
2022/07/11 00:01:25;;;;;;;3.31;1.04;;;;;;;;;;342795;157;866265;-66
2022/07/11 00:02:28;;;;;;;4.39;1.20;;;;;;;;;;342727;156;857349;-63
2022/07/11 00:03:30;;;;;;;2.25;1.09;;;;;;;;;;342712;156;864467;-64
2022/07/11 00:04:31;;;;;;;5.01;1.16;;;;;;;;;;342845;156;857229;-63
2022/07/11 00:05:33;;;;;;;3.73;1.25;;;;;;;;;;342854;156;865436;-65
2022/07/11 00:06:35;;;;;;;2.89;1.13;;;;;;;;;;342655;156;857217;-65
2022/07/11 00:07:37;;;;;;;2.15;0.96;;;;;;;;;;342771;157;859357;-65
2022/07/11 00:08:39;;;;;;;2.23;1.09;;;;;;;;;;337533;159;859572;-63
2022/07/11 00:09:41;;;;;;;2.88;1.10;;;;;;;;;;337602;157;858764;-64
2022/07/11 00:10:43;;;;;;;3.07;1.11;;;;;;;;;;342619;156;864977;-66
2022/07/11 00:11:45;;;;;;;3.56;1.26;;;;;;;;;;342754;156;858600;-65
2022/07/11 00:12:47;;;;;;;3.75;1.24;;;;;;;;;;342680;156;857280;-65
2022/07/11 00:13:50;;;;;;;1.79;1.13;;;;;;;;;;342739;157;864557;-65
2022/07/11 00:14:52;;;;;;;2.37;1.06;;;;;;;;;;342625;156;858551;-66
2022/07/11 00:15:53;;;;;;;3.52;1.22;;;;;;;;;;337549;159;857124;-65
2022/07/11 00:16:55;;;;;;;3.41;1.06;;;;;;;;;;337585;157;860543;-64
2022/07/11 00:17:57;;;;;;;2.98;1.14;;;;;;;;;;342829;157;864179;-66
2022/07/11 00:18:59;;;;;;;4.82;1.38;;;;;;;;;;337629;159;865069;-64
2022/07/11 00:20:02;;;;;;;2.62;1.00;;;;;;;;;;337745;157;864647;-65
2022/07/11 00:21:04;;;;;;;3.72;1.37;;;;;;;;;;342892;156;857137;-66
2022/07/11 00:22:06;;;;;;;5.30;1.13;;;;;;;;;;342873;157;857120;-64
2022/07/11 00:23:07;;;;;;;1.86;0.81;;;;;;;;;;342731;157;857315;-67
2022/07/11 00:24:09;;;;;;;2.41;1.29;;;;;;;;;;342802;156;864854;-66
2022/07/11 00:25:11;;;;;;;3.28;0.93;;;;;;;;;;342646;156;858876;-63
2022/07/11 00:26:14;;;;;;;4.49;1.37;;;;;;;;;;342817;156;858019;-65
2022/07/11 00:27:17;;;;;;;4.89;1.11;;;;;;;;;;342778;156;857960;-69
2022/07/11 00:28:18;;;;;;;5.84;1.27;;;;;;;;;;342857;157;864658;-68
2022/07/11 00:29:20;;;;;;;5.19;1.32;;;;;;;;;;342906;156;857410;-68
2022/07/11 00:30:23;;;;;;;2.49;1.09;;;;;;;;;;342816;156;858884;-67
2022/07/11 00:31:25;;;;;;;3.25;1.41;;;;;;;;;;342754;156;859759;-62
2022/07/11 00:32:27;;;;;;;3.52;1.44;;;;;;;;;;342769;157;858873;-65
2022/07/11 00:33:28;;;;;;;3.55;1.43;;;;;;;;;;342601;157;864776;-65
2022/07/11 00:34:30;;;;;;;4.36;1.19;;;;;;;;;;342836;156;857436;-65
2022/07/11 00:35:32;;;;;;;5.09;1.44;;;;;;;;;;342781;157;857383;-65
2022/07/11 00:36:34;;;;;;;3.33;1.21;;;;;;;;;;342553;156;857766;-67
2022/07/11 00:37:38;;;;;;;5.09;1.21;;;;;;;;;;342624;156;857512;-65
2022/07/11 00:38:40;;;;;;;6.52;1.28;;;;;;;;;;342459;157;866469;-65
2022/07/11 00:39:42;;;;;;;5.91;1.44;;;;;;;;;;342718;156;857428;-66
2022/07/11 00:40:44;;;;;;;4.67;1.41;;;;;;;;;;342697;156;865398;-64
2022/07/11 00:41:46;;;;;;;3.75;1.25;;;;;;;;;;342704;156;857806;-65
2022/07/11 00:42:49;;;;;;;3.03;1.38;;;;;;;;;;342673;157;860372;-65
2022/07/11 00:43:51;;;;;;;3.28;1.21;;;;;;;;;;342688;156;858603;-64
2022/07/11 00:44:53;;;;;;;3.99;1.43;;;;;;;;;;342604;157;859597;-64
2022/07/11 00:45:55;;;;;;;5.86;1.37;;;;;;;;;;342735;157;857445;-64
2022/07/11 00:46:56;;;;;;;6.29;1.42;;;;;;;;;;344500;155;865552;-64
2022/07/11 00:47:59;;;;;;;2.81;1.17;;;;;;;;;;345612;155;864955;-64
2022/07/11 00:49:01;;;;;;;3.40;1.42;;;;;;;;;;340202;158;857458;-65
2022/07/11 00:50:03;;;;;;;3.70;1.19;;;;;;;;;;340448;155;856850;-65
2022/07/11 00:51:08;;;;;;;3.23;1.35;;;;;;;;;;345683;155;864685;-65
2022/07/11 00:52:10;;;;;;;3.33;1.20;;;;;;;;;;345648;155;865885;-67
2022/07/11 00:53:11;;;;;;;3.98;1.51;;;;;;;;;;340382;158;857398;-66
2022/07/11 00:54:14;;;;;;;2.94;1.21;;;;;;;;;;340407;155;864543;-66
2022/07/11 00:55:15;;;;;;;3.39;1.29;;;;;;;;;;345909;155;866217;-66
2022/07/11 00:56:21;;;;;;;4.80;1.33;;;;;;;;;;345925;155;858830;-66
2022/07/11 00:57:43;;;;;;;3.19;1.30;;;;;;;;;;345626;155;857258;-65
2022/07/11 00:58:45;;;;;;;4.63;1.01;;;;;;;;;;351669;152;857648;-65
2022/07/11 00:59:47;;;;;;;2.50;1.06;;;;;;;;;;333766;159;858219;-66
2022/07/11 01:00:49;;;;;;;2.08;1.01;;;;;;;;;;335614;160;857813;-66
2022/07/11 01:01:51;;;;;;;5.09;1.72;;;;;;;;;;330337;161;857755;-65
2022/07/11 01:02:52;;;;;;;4.64;1.03;;;;;;;;;;334279;160;858959;-65
2022/07/11 01:03:55;;;;;;;2.84;1.47;;;;;;;;;;334239;161;857373;-67
2022/07/11 01:04:57;;;;;;;1.61;0.97;;;;;;;;;;334338;161;859803;-66
2022/07/11 01:05:59;;;;;;;4.39;1.33;;;;;;;;;;334408;161;860153;-65
2022/07/11 01:07:01;;;;;;;3.31;1.37;;;;;;;;;;334271;160;857832;-64
2022/07/11 01:08:03;;;;;;;2.31;1.14;;;;;;;;;;334342;160;857809;-66
2022/07/11 01:09:05;;;;;;;4.67;1.20;;;;;;;;;;334314;160;858987;-63
2022/07/11 01:10:08;;;;;;;2.43;1.07;;;;;;;;;;334260;160;857225;-66
2022/07/11 01:11:15;;;;;;;6.13;1.09;;;;;;;;;;334244;161;866204;-68
2022/07/11 01:12:17;;;;;;;2.18;1.13;;;;;;;;;;334065;161;860010;-64
2022/07/11 01:13:19;;;;;;;2.64;1.09;;;;;;;;;;334467;160;859056;-67
2022/07/11 01:14:20;;;;;;;4.44;1.81;;;;;;;;;;334420;160;865686;-66
2022/07/11 01:15:22;;;;;;;3.53;1.20;;;;;;;;;;334468;161;864876;-69
2022/07/11 01:16:25;;;;;;;6.19;1.32;;;;;;;;;;334446;161;864560;-69
2022/07/11 01:17:26;;;;;;;4.31;1.29;;;;;;;;;;334247;160;864702;-63
2022/07/11 01:18:28;;;;;;;1.34;0.90;;;;;;;;;;335852;158;864697;-65
2022/07/11 01:19:30;;;;;;;4.77;1.15;;;;;;;;;;352784;152;866590;-64
2022/07/11 01:20:32;;;;;;;2.67;0.97;;;;;;;;;;339384;158;863994;-65
2022/07/11 01:21:40;;;;;;;2.75;0.87;;;;;;;;;;339524;156;859023;-64
2022/07/11 01:22:49;;;;;;;2.79;1.04;;;;;;;;;;344447;156;866599;-66
2022/07/11 01:23:51;;;;;;;3.46;0.95;;;;;;;;;;344548;154;857779;-65
2022/07/11 01:24:53;;;;;;;4.01;0.98;;;;;;;;;;344754;155;859799;-65
2022/07/11 01:25:55;;;;;;;2.87;1.31;;;;;;;;;;344813;155;858808;-65
2022/07/11 01:26:57;;;;;;;3.86;1.31;;;;;;;;;;344831;155;859569;-66
2022/07/11 01:27:59;;;;;;;6.01;1.09;;;;;;;;;;344776;156;857838;-64
2022/07/11 01:29:11;;;;;;;3.49;1.21;;;;;;;;;;344736;155;864623;-64
2022/07/11 01:30:14;;;;;;;3.69;1.02;;;;;;;;;;344587;155;858597;-64
2022/07/11 01:31:18;;;;;;;3.74;0.99;;;;;;;;;;344760;154;858650;-64
2022/07/11 01:32:20;;;;;;;2.71;0.94;;;;;;;;;;344578;155;864645;-65
2022/07/11 01:33:22;;;;;;;3.51;1.15;;;;;;;;;;344620;155;865450;-63
2022/07/11 01:34:24;;;;;;;2.62;1.09;;;;;;;;;;344695;156;858890;-63
2022/07/11 01:35:26;;;;;;;2.35;0.88;;;;;;;;;;344594;156;866514;-66
2022/07/11 01:36:28;;;;;;;2.32;1.09;;;;;;;;;;344627;155;857077;-65
2022/07/11 01:37:30;;;;;;;2.31;1.25;;;;;;;;;;344596;156;857190;-65
2022/07/11 01:38:33;;;;;;;3.19;1.23;;;;;;;;;;344701;156;865700;-65
2022/07/11 01:39:35;;;;;;;4.67;1.14;;;;;;;;;;344520;155;858549;-66
2022/07/11 01:40:37;;;;;;;4.18;1.11;;;;;;;;;;344738;155;858783;-65
2022/07/11 01:41:39;;;;;;;4.76;1.03;;;;;;;;;;344633;156;858996;-66
2022/07/11 01:42:41;;;;;;;4.27;1.07;;;;;;;;;;344577;156;866132;-64
2022/07/11 01:43:43;;;;;;;2.41;1.03;;;;;;;;;;344780;155;858982;-65
2022/07/11 01:44:45;;;;;;;3.20;1.09;;;;;;;;;;344837;155;859515;-66
2022/07/11 01:45:49;;;;;;;2.23;0.99;;;;;;;;;;344831;156;856785;-66
2022/07/11 01:46:51;;;;;;;3.53;0.95;;;;;;;;;;344698;155;857245;-66
2022/07/11 01:47:52;;;;;;;2.77;1.20;;;;;;;;;;344749;154;857286;-67
2022/07/11 01:48:54;;;;;;;3.01;1.14;;;;;;;;;;344924;156;865248;-66
2022/07/11 01:49:56;;;;;;;3.25;0.99;;;;;;;;;;344810;154;859988;-66
2022/07/11 01:50:58;;;;;;;2.22;1.02;;;;;;;;;;344753;155;865343;-66
2022/07/11 01:52:00;;;;;;;2.84;1.18;;;;;;;;;;344809;156;857198;-64
2022/07/11 01:53:02;;;;;;;1.93;1.04;;;;;;;;;;344924;156;864697;-67
2022/07/11 01:54:04;;;;;;;5.36;1.17;;;;;;;;;;344889;155;859803;-67
2022/07/11 01:55:06;;;;;;;2.52;1.06;;;;;;;;;;339696;157;860747;-65
2022/07/11 01:56:08;;;;;;;2.35;1.14;;;;;;;;;;339774;156;857385;-71
2022/07/11 01:57:10;;;;;;;3.20;1.24;;;;;;;;;;345086;154;857263;-68
2022/07/11 01:58:12;;;;;;;3.88;1.30;;;;;;;;;;345386;154;858782;-70
2022/07/11 01:59:14;;;;;;;5.54;1.26;;;;;;;;;;348294;154;857750;-66
2022/07/11 02:00:16;;;;;;;1.89;1.09;;;;;;;;;;348091;154;864785;-66
2022/07/11 02:01:18;;;;;;;2.44;0.94;;;;;;;;;;348146;154;864959;-65
2022/07/11 02:02:20;;;;;;;2.81;0.99;;;;;;;;;;348172;154;857293;-64
2022/07/11 02:03:22;;;;;;;3.42;1.00;;;;;;;;;;348133;154;857118;-66
2022/07/11 02:04:24;;;;;;;4.79;1.18;;;;;;;;;;348205;154;859344;-65
2022/07/11 02:05:25;;;;;;;2.36;1.01;;;;;;;;;;348084;154;858557;-64
2022/07/11 02:06:28;;;;;;;2.27;0.85;;;;;;;;;;347980;154;866416;-66
2022/07/11 02:08:49;;;;;;;3.47;0.96;;;;;;;;;;347622;154;866208;-65
2022/07/11 02:09:51;;;;;;;2.59;1.06;;;;;;;;;;348025;154;864310;-66
2022/07/11 02:10:53;;;;;;;2.61;1.02;;;;;;;;;;348072;154;864839;-66
2022/07/11 02:11:55;;;;;;;3.29;1.14;;;;;;;;;;348094;154;859547;-64
2022/07/11 02:12:58;;;;;;;5.14;1.24;;;;;;;;;;348228;154;857128;-66
2022/07/11 02:14:00;;;;;;;2.69;0.79;;;;;;;;;;348016;154;864531;-67
2022/07/11 02:15:03;;;;;;;3.37;1.03;;;;;;;;;;347969;154;857610;-67
2022/07/11 02:16:06;;;;;;;6.38;0.97;;;;;;;;;;347101;152;865733;-66
2022/07/11 02:17:08;;;;;;;2.74;0.88;;;;;;;;;;347001;155;857145;-64
2022/07/11 02:18:12;;;;;;;2.32;0.76;;;;;;;;;;347097;155;857220;-66
2022/07/11 02:19:15;;;;;;;2.13;0.86;;;;;;;;;;346936;155;865681;-64
2022/07/11 02:20:20;;;;;;;3.71;1.24;;;;;;;;;;346903;155;857247;-65
2022/07/11 02:21:22;;;;;;;4.12;1.32;;;;;;;;;;346607;155;857152;-65
2022/07/11 02:22:24;;;;;;;2.59;0.99;;;;;;;;;;347133;155;858982;-64
2022/07/11 02:23:26;;;;;;;1.77;0.59;;;;;;;;;;346998;155;866391;-65
2022/07/11 02:24:30;;;;;;;2.84;1.00;;;;;;;;;;347002;155;857234;-64
2022/07/11 02:25:32;;;;;;;2.73;1.01;;;;;;;;;;346860;155;867389;-65
2022/07/11 02:26:38;;;;;;;8.35;1.61;;;;;;;;;;346898;155;857481;-66
2022/07/11 02:27:40;;;;;;;3.06;0.90;;;;;;;;;;346862;155;857462;-65
2022/07/11 02:28:42;;;;;;;3.61;0.81;;;;;;;;;;346958;155;865535;-65
2022/07/11 02:29:44;;;;;;;4.15;0.87;;;;;;;;;;347058;155;865960;-64
2022/07/11 02:30:45;;;;;;;1.82;0.85;;;;;;;;;;347044;155;857120;-66
2022/07/11 02:31:47;;;;;;;1.85;0.87;;;;;;;;;;347222;155;864897;-66
2022/07/11 02:32:51;;;;;;;1.79;0.81;;;;;;;;;;347115;155;865465;-63
2022/07/11 02:33:53;;;;;;;2.31;0.77;;;;;;;;;;346803;155;857245;-65
2022/07/11 02:34:54;;;;;;;3.15;0.82;;;;;;;;;;347143;155;864568;-67
2022/07/11 02:35:56;;;;;;;2.85;0.79;;;;;;;;;;347135;155;864861;-64
2022/07/11 02:36:58;;;;;;;3.15;0.86;;;;;;;;;;347119;155;864258;-65
2022/07/11 02:38:00;;;;;;;3.14;0.99;;;;;;;;;;347125;155;858112;-65
2022/07/11 02:39:02;;;;;;;1.98;0.81;;;;;;;;;;346993;155;864841;-65
2022/07/11 02:40:04;;;;;;;2.74;0.99;;;;;;;;;;340963;158;858401;-67
2022/07/11 02:41:06;;;;;;;1.75;0.76;;;;;;;;;;347636;152;857451;-68
2022/07/11 02:42:08;;;;;;;4.21;0.87;;;;;;;;;;354049;152;864794;-66
2022/07/11 02:43:11;;;;;;;2.60;0.76;;;;;;;;;;353820;152;864169;-69
2022/07/11 02:44:13;;;;;;;2.66;1.02;;;;;;;;;;354056;152;857194;-69
2022/07/11 02:45:15;;;;;;;2.35;0.96;;;;;;;;;;353796;152;864952;-65
2022/07/11 02:46:18;;;;;;;1.83;0.94;;;;;;;;;;353424;152;865477;-65
2022/07/11 02:47:20;;;;;;;2.10;0.84;;;;;;;;;;349730;152;858964;-65
2022/07/11 02:48:22;;;;;;;3.69;1.11;;;;;;;;;;350368;153;864724;-65
2022/07/11 02:49:23;;;;;;;6.51;1.14;;;;;;;;;;347975;154;858539;-65
2022/07/11 02:50:26;;;;;;;4.01;0.89;;;;;;;;;;333618;158;865577;-64
2022/07/11 02:51:28;;;;;;;2.36;0.81;;;;;;;;;;339582;158;865106;-66
2022/07/11 02:52:29;;;;;;;4.15;0.81;;;;;;;;;;339546;158;865657;-66
2022/07/11 02:53:31;;;;;;;2.74;0.89;;;;;;;;;;339347;158;857886;-64
2022/07/11 02:54:32;;;;;;;3.39;1.04;;;;;;;;;;339396;158;857300;-64
2022/07/11 02:55:34;;;;;;;2.12;0.87;;;;;;;;;;339463;158;866238;-66
2022/07/11 02:56:36;;;;;;;3.08;1.36;;;;;;;;;;339422;158;858294;-64
2022/07/11 02:57:38;;;;;;;2.12;1.01;;;;;;;;;;339427;158;858005;-65
2022/07/11 02:58:40;;;;;;;1.34;0.80;;;;;;;;;;347875;153;865295;-66
2022/07/11 02:59:42;;;;;;;3.38;0.96;;;;;;;;;;347799;154;865316;-66
2022/07/11 03:00:44;;;;;;;2.37;0.84;;;;;;;;;;348057;154;864698;-65
2022/07/11 03:01:45;;;;;;;3.41;1.10;;;;;;;;;;347933;154;857469;-66
2022/07/11 03:02:47;;;;;;;3.12;0.84;;;;;;;;;;347952;154;864404;-65
2022/07/11 03:03:49;;;;;;;3.86;1.13;;;;;;;;;;347968;154;857221;-64
2022/07/11 03:04:50;;;;;;;1.39;0.67;;;;;;;;;;348071;154;859492;-64
2022/07/11 03:05:52;;;;;;;2.83;0.93;;;;;;;;;;347938;154;865110;-63
2022/07/11 03:06:54;;;;;;;3.48;1.04;;;;;;;;;;348090;154;857240;-67
2022/07/11 03:07:55;;;;;;;4.04;0.90;;;;;;;;;;348001;154;864968;-68
2022/07/11 03:08:57;;;;;;;1.47;0.83;;;;;;;;;;348215;154;858917;-70
2022/07/11 03:09:58;;;;;;;1.66;0.90;;;;;;;;;;348218;154;862468;-71
2022/07/11 03:11:00;;;;;;;1.84;0.88;;;;;;;;;;348320;154;857721;-71
2022/07/11 03:12:02;;;;;;;4.36;1.11;;;;;;;;;;348322;154;858987;-70
2022/07/11 03:13:05;;;;;;;1.88;0.93;;;;;;;;;;339545;158;866212;-64
2022/07/11 03:14:07;;;;;;;3.22;1.03;;;;;;;;;;339520;158;864935;-67
2022/07/11 03:15:09;;;;;;;2.98;1.07;;;;;;;;;;339499;158;858864;-68
2022/07/11 03:16:11;;;;;;;2.47;0.87;;;;;;;;;;339438;158;864750;-67
2022/07/11 03:17:12;;;;;;;1.93;0.99;;;;;;;;;;339490;158;859066;-67
2022/07/11 03:18:14;;;;;;;4.13;0.84;;;;;;;;;;339534;158;858954;-66
2022/07/11 03:19:16;;;;;;;3.41;0.91;;;;;;;;;;339500;158;858969;-64
2022/07/11 03:20:20;;;;;;;5.67;1.01;;;;;;;;;;339471;158;863946;-64
2022/07/11 03:21:22;;;;;;;3.17;1.39;;;;;;;;;;333273;161;857232;-66
2022/07/11 03:22:26;;;;;;;2.54;0.95;;;;;;;;;;335274;158;857992;-65
2022/07/11 03:23:29;;;;;;;5.61;0.97;;;;;;;;;;350194;153;858837;-65
2022/07/11 03:24:31;;;;;;;2.16;0.84;;;;;;;;;;354380;152;859252;-66
2022/07/11 03:25:33;;;;;;;1.14;0.78;;;;;;;;;;347944;154;864888;-66
2022/07/11 03:26:34;;;;;;;2.56;1.04;;;;;;;;;;347960;154;866922;-67
2022/07/11 03:27:36;;;;;;;3.07;1.24;;;;;;;;;;348092;154;865305;-65
2022/07/11 03:28:38;;;;;;;2.55;0.88;;;;;;;;;;342839;156;864124;-65
2022/07/11 03:29:40;;;;;;;1.71;0.82;;;;;;;;;;342931;154;864180;-67
2022/07/11 03:30:42;;;;;;;2.74;0.82;;;;;;;;;;347996;154;866478;-67
2022/07/11 03:31:44;;;;;;;3.94;1.30;;;;;;;;;;348094;154;857274;-68
2022/07/11 03:32:45;;;;;;;4.31;1.00;;;;;;;;;;348066;154;865139;-67
2022/07/11 03:33:48;;;;;;;3.04;0.83;;;;;;;;;;348152;154;857783;-67
2022/07/11 03:36:11;;;;;;;3.00;1.19;;;;;;;;;;347852;154;856626;-68
2022/07/11 03:37:13;;;;;;;4.17;0.93;;;;;;;;;;348090;154;857842;-67
2022/07/11 03:38:17;;;;;;;2.57;0.85;;;;;;;;;;348107;154;858031;-67
2022/07/11 03:39:18;;;;;;;2.66;0.74;;;;;;;;;;347924;154;864342;-66
2022/07/11 03:40:22;;;;;;;4.96;1.17;;;;;;;;;;342997;156;864128;-66
2022/07/11 03:41:24;;;;;;;5.75;0.98;;;;;;;;;;343037;154;858140;-65
2022/07/11 03:42:26;;;;;;;3.37;0.97;;;;;;;;;;348201;154;858096;-65
2022/07/11 03:43:28;;;;;;;3.51;1.11;;;;;;;;;;348124;154;858572;-67
2022/07/11 03:44:30;;;;;;;3.03;0.91;;;;;;;;;;348199;154;857879;-66
2022/07/11 03:45:34;;;;;;;5.44;1.46;;;;;;;;;;347833;152;857107;-65
2022/07/11 03:46:38;;;;;;;2.64;0.94;;;;;;;;;;347936;152;866135;-66
2022/07/11 03:47:40;;;;;;;6.35;1.10;;;;;;;;;;348190;154;857311;-66
2022/07/11 03:48:41;;;;;;;1.16;0.68;;;;;;;;;;348103;154;864447;-67
2022/07/11 03:49:45;;;;;;;3.47;1.14;;;;;;;;;;347967;154;864837;-67
2022/07/11 03:50:47;;;;;;;3.30;1.00;;;;;;;;;;348119;154;864701;-66
2022/07/11 03:51:51;;;;;;;2.57;0.95;;;;;;;;;;348196;154;858698;-67
2022/07/11 03:52:54;;;;;;;2.85;0.71;;;;;;;;;;347986;154;857634;-66
2022/07/11 03:53:55;;;;;;;1.22;0.84;;;;;;;;;;348125;154;857093;-70
2022/07/11 03:54:57;;;;;;;2.51;0.94;;;;;;;;;;348300;153;864764;-70
2022/07/11 03:55:59;;;;;;;1.53;0.68;;;;;;;;;;339833;158;865456;-69
2022/07/11 03:57:02;;;;;;;3.83;1.02;;;;;;;;;;339808;158;864729;-69
2022/07/11 03:58:04;;;;;;;2.77;0.87;;;;;;;;;;339716;158;859541;-66
2022/07/11 03:59:06;;;;;;;6.32;1.07;;;;;;;;;;339564;158;864859;-66
2022/07/11 04:00:09;;;;;;;1.99;0.76;;;;;;;;;;335994;158;857119;-63
2022/07/11 04:01:11;;;;;;;3.22;0.80;;;;;;;;;;335961;160;858971;-66
2022/07/11 04:02:13;;;;;;;2.42;0.94;;;;;;;;;;336025;160;857819;-65
2022/07/11 04:03:14;;;;;;;3.73;0.87;;;;;;;;;;348116;154;864911;-67
2022/07/11 04:04:16;;;;;;;3.97;0.99;;;;;;;;;;348061;154;864402;-65
2022/07/11 04:05:17;;;;;;;2.79;0.68;;;;;;;;;;348095;154;859569;-66
2022/07/11 04:06:20;;;;;;;3.69;0.90;;;;;;;;;;348071;152;860854;-67
2022/07/11 04:07:22;;;;;;;2.37;0.82;;;;;;;;;;348080;154;857308;-67
2022/07/11 04:08:23;;;;;;;2.95;1.09;;;;;;;;;;348222;154;857278;-66
2022/07/11 04:09:27;;;;;;;2.53;1.03;;;;;;;;;;348003;154;857534;-66
2022/07/11 04:10:29;;;;;;;2.82;1.09;;;;;;;;;;347899;154;859094;-66
2022/07/11 04:11:31;;;;;;;2.47;0.99;;;;;;;;;;347890;154;859137;-66
2022/07/11 04:12:33;;;;;;;3.39;1.01;;;;;;;;;;348051;154;856848;-67
2022/07/11 04:13:34;;;;;;;2.06;0.79;;;;;;;;;;348147;154;864608;-67
2022/07/11 04:14:36;;;;;;;2.74;0.91;;;;;;;;;;348339;154;856625;-66
2022/07/11 04:15:38;;;;;;;7.24;1.12;;;;;;;;;;348010;154;864911;-66
2022/07/11 04:16:40;;;;;;;2.49;1.27;;;;;;;;;;347920;154;864979;-67
2022/07/11 04:17:44;;;;;;;2.83;0.80;;;;;;;;;;348235;154;864400;-66
2022/07/11 04:18:45;;;;;;;1.91;0.94;;;;;;;;;;348112;154;858146;-66
2022/07/11 04:19:48;;;;;;;2.57;1.03;;;;;;;;;;348310;154;857761;-67
2022/07/11 04:20:50;;;;;;;2.52;0.85;;;;;;;;;;343105;156;864877;-66
2022/07/11 04:21:58;;;;;;;1.56;0.79;;;;;;;;;;343338;154;857327;-66
2022/07/11 04:23:01;;;;;;;5.52;0.84;;;;;;;;;;342941;156;859156;-67
2022/07/11 04:24:04;;;;;;;1.69;0.77;;;;;;;;;;343220;154;857529;-67
2022/07/11 04:25:06;;;;;;;4.66;1.14;;;;;;;;;;343078;157;857403;-68
2022/07/11 04:26:09;;;;;;;2.41;0.64;;;;;;;;;;343155;154;858977;-68
2022/07/11 04:27:10;;;;;;;2.41;1.02;;;;;;;;;;347829;152;857614;-69
2022/07/11 04:28:12;;;;;;;2.23;0.86;;;;;;;;;;347827;155;860870;-70
2022/07/11 04:29:14;;;;;;;2.49;0.76;;;;;;;;;;348073;154;857816;-72
2022/07/11 04:30:18;;;;;;;2.15;1.05;;;;;;;;;;348250;154;865661;-72
2022/07/11 04:31:21;;;;;;;2.18;1.00;;;;;;;;;;347820;154;858072;-67
2022/07/11 04:32:23;;;;;;;1.47;0.67;;;;;;;;;;347920;154;857366;-70
2022/07/11 04:33:25;;;;;;;2.31;0.72;;;;;;;;;;347849;154;865679;-68
2022/07/11 04:34:26;;;;;;;1.01;0.67;;;;;;;;;;347730;154;857849;-67
2022/07/11 04:35:30;;;;;;;1.09;0.69;;;;;;;;;;347770;155;866446;-66
2022/07/11 04:36:32;;;;;;;2.77;0.81;;;;;;;;;;347709;154;866330;-68
2022/07/11 04:37:34;;;;;;;1.39;0.77;;;;;;;;;;347856;154;858308;-68
2022/07/11 04:38:36;;;;;;;4.27;1.11;;;;;;;;;;347769;155;858885;-67
2022/07/11 04:39:38;;;;;;;1.62;0.85;;;;;;;;;;347811;154;857277;-68
2022/07/11 04:40:40;;;;;;;1.21;0.81;;;;;;;;;;347684;154;859149;-68
2022/07/11 04:41:41;;;;;;;1.79;0.83;;;;;;;;;;347822;154;858943;-68
2022/07/11 04:42:43;;;;;;;2.15;0.71;;;;;;;;;;348035;154;857859;-66
2022/07/11 04:43:44;;;;;;;1.92;0.74;;;;;;;;;;348164;154;866573;-67
2022/07/11 04:44:46;;;;;;;3.61;0.94;;;;;;;;;;348018;154;864868;-67
2022/07/11 04:45:48;;;;;;;2.36;0.79;;;;;;;;;;348185;154;858921;-68
2022/07/11 04:46:49;;;;;;;1.81;0.91;;;;;;;;;;347991;154;864305;-66
2022/07/11 04:47:51;;;;;;;2.11;0.84;;;;;;;;;;348066;154;864583;-68
2022/07/11 04:48:53;;;;;;;3.21;0.71;;;;;;;;;;347900;154;857293;-67
2022/07/11 04:49:56;;;;;;;4.74;0.76;;;;;;;;;;347661;154;865872;-67
2022/07/11 04:50:58;;;;;;;3.82;1.30;;;;;;;;;;347713;155;864532;-68
2022/07/11 04:51:59;;;;;;;2.00;0.78;;;;;;;;;;347759;154;857236;-68
2022/07/11 04:53:01;;;;;;;3.36;0.81;;;;;;;;;;347818;154;857653;-68
2022/07/11 04:54:03;;;;;;;1.31;0.81;;;;;;;;;;347648;154;865424;-65
2022/07/11 04:55:08;;;;;;;1.22;0.62;;;;;;;;;;347589;155;864701;-65
2022/07/11 04:56:11;;;;;;;2.15;0.70;;;;;;;;;;347946;154;857168;-65
2022/07/11 04:57:14;;;;;;;2.39;0.99;;;;;;;;;;347833;154;865610;-67
2022/07/11 04:58:16;;;;;;;2.24;0.79;;;;;;;;;;348121;154;864838;-67
2022/07/11 04:59:19;;;;;;;1.54;0.80;;;;;;;;;;347996;154;865592;-66
2022/07/11 05:00:21;;;;;;;2.38;0.70;;;;;;;;;;349357;153;861870;-66
2022/07/11 05:01:23;;;;;;;5.56;0.86;;;;;;;;;;354536;152;864884;-71
2022/07/11 05:02:25;;;;;;;2.41;0.80;;;;;;;;;;348267;154;864765;-67
2022/07/11 05:03:26;;;;;;;3.19;0.69;;;;;;;;;;348210;154;865902;-70
2022/07/11 05:04:28;;;;;;;2.01;1.20;;;;;;;;;;348172;154;864793;-67
2022/07/11 05:05:30;;;;;;;3.11;0.84;;;;;;;;;;341992;157;864812;-67
2022/07/11 05:06:36;;;;;;;2.31;0.82;;;;;;;;;;341871;156;864433;-64
2022/07/11 05:07:37;;;;;;;1.46;0.86;;;;;;;;;;341914;157;858770;-68
2022/07/11 05:08:40;;;;;;;1.58;0.83;;;;;;;;;;344788;154;864785;-66
2022/07/11 05:09:43;;;;;;;1.61;0.85;;;;;;;;;;347768;154;858999;-66
2022/07/11 05:10:45;;;;;;;3.01;0.89;;;;;;;;;;347687;154;856768;-67
2022/07/11 05:11:47;;;;;;;2.82;0.90;;;;;;;;;;347830;154;858883;-66
2022/07/11 05:12:48;;;;;;;2.70;0.91;;;;;;;;;;347749;154;859182;-69
2022/07/11 05:13:50;;;;;;;3.65;0.74;;;;;;;;;;350023;152;864434;-68
2022/07/11 05:14:52;;;;;;;3.12;1.50;;;;;;;;;;354420;152;864629;-69
2022/07/11 05:15:54;;;;;;;1.65;0.72;;;;;;;;;;345504;154;858655;-67
2022/07/11 05:16:56;;;;;;;2.75;0.75;;;;;;;;;;348083;154;857085;-68
2022/07/11 05:17:58;;;;;;;1.41;0.66;;;;;;;;;;348129;154;858361;-67
2022/07/11 05:19:01;;;;;;;2.02;0.77;;;;;;;;;;348191;154;857530;-67
2022/07/11 05:20:03;;;;;;;1.68;0.67;;;;;;;;;;348048;154;859056;-69
2022/07/11 05:21:05;;;;;;;1.49;0.70;;;;;;;;;;348234;154;864202;-69
2022/07/11 05:22:07;;;;;;;3.17;0.77;;;;;;;;;;343182;155;857231;-66
2022/07/11 05:23:09;;;;;;;2.32;0.78;;;;;;;;;;343110;157;857401;-66
2022/07/11 05:24:10;;;;;;;2.39;0.90;;;;;;;;;;347978;154;866481;-66
2022/07/11 05:25:12;;;;;;;2.59;0.78;;;;;;;;;;348140;154;864744;-67
2022/07/11 05:26:14;;;;;;;3.51;1.13;;;;;;;;;;348115;154;865646;-66
2022/07/11 05:27:16;;;;;;;2.07;0.81;;;;;;;;;;348163;154;857178;-70
2022/07/11 05:28:18;;;;;;;3.96;0.91;;;;;;;;;;348212;152;859110;-68
2022/07/11 05:29:19;;;;;;;2.41;0.64;;;;;;;;;;348315;154;866351;-68
2022/07/11 05:30:21;;;;;;;1.87;1.05;;;;;;;;;;348243;154;859734;-65
2022/07/11 05:31:23;;;;;;;3.45;1.09;;;;;;;;;;348446;154;858378;-70
2022/07/11 05:32:25;;;;;;;2.29;0.78;;;;;;;;;;348255;152;866609;-73
2022/07/11 05:33:35;;;;;;;2.05;0.82;;;;;;;;;;347846;154;864591;-68
2022/07/11 05:34:37;;;;;;;1.05;0.68;;;;;;;;;;348312;154;858530;-68
2022/07/11 05:35:38;;;;;;;3.41;0.91;;;;;;;;;;348262;154;857276;-72
2022/07/11 05:36:40;;;;;;;1.33;0.56;;;;;;;;;;343361;157;858822;-69
2022/07/11 05:37:42;;;;;;;3.74;0.79;;;;;;;;;;343341;154;857298;-71
2022/07/11 05:38:44;;;;;;;2.41;0.68;;;;;;;;;;348199;154;865303;-65
2022/07/11 05:39:46;;;;;;;11.14;0.99;;;;;;;;;;348168;154;862641;-65
2022/07/11 05:40:47;;;;;;;2.16;0.90;;;;;;;;;;348114;154;865523;-65
2022/07/11 05:41:51;;;;;;;0.66;0.63;;;;;;;;;;348093;154;865221;-66
2022/07/11 05:42:53;;;;;;;2.29;0.73;;;;;;;;;;347793;154;858140;-63
2022/07/11 05:43:55;;;;;;;5.10;0.81;;;;;;;;;;343087;156;856852;-66
2022/07/11 05:44:57;;;;;;;2.66;0.81;;;;;;;;;;337187;157;857414;-64
2022/07/11 05:45:59;;;;;;;5.23;1.09;;;;;;;;;;343125;154;865382;-66
2022/07/11 05:47:01;;;;;;;1.20;0.61;;;;;;;;;;348080;154;859471;-65
2022/07/11 05:48:03;;;;;;;1.60;0.87;;;;;;;;;;348003;154;864780;-70
2022/07/11 05:49:07;;;;;;;2.85;0.81;;;;;;;;;;347751;154;857335;-66
2022/07/11 05:50:09;;;;;;;2.32;0.84;;;;;;;;;;347644;154;859225;-67
2022/07/11 05:51:13;;;;;;;3.94;0.80;;;;;;;;;;348026;154;857297;-66
2022/07/11 05:52:15;;;;;;;1.25;0.75;;;;;;;;;;342983;156;864452;-65
2022/07/11 05:53:17;;;;;;;2.99;0.62;;;;;;;;;;343100;154;857384;-66
2022/07/11 05:54:19;;;;;;;1.69;0.90;;;;;;;;;;348031;154;864384;-67
2022/07/11 05:55:20;;;;;;;2.49;0.80;;;;;;;;;;347973;154;865408;-65
2022/07/11 05:56:23;;;;;;;2.36;0.87;;;;;;;;;;347623;154;864153;-65
2022/07/11 05:57:25;;;;;;;2.76;1.17;;;;;;;;;;347697;155;857305;-66
2022/07/11 05:58:27;;;;;;;2.40;0.85;;;;;;;;;;347692;155;858944;-66
2022/07/11 05:59:29;;;;;;;1.11;0.59;;;;;;;;;;347570;155;865063;-64
2022/07/11 06:00:33;;;;;;;3.12;0.89;;;;;;;;;;346923;155;857294;-64
2022/07/11 06:01:35;;;;;;;2.39;0.77;;;;;;;;;;352642;152;857745;-64
2022/07/11 06:02:38;;;;;;;2.97;0.80;;;;;;;;;;352775;152;857234;-64
2022/07/11 06:03:40;;;;;;;2.22;0.76;;;;;;;;;;352679;152;858560;-66
2022/07/11 06:04:42;;;;;;;2.99;0.75;;;;;;;;;;345279;155;858159;-66
2022/07/11 06:05:44;;;;;;;4.39;1.03;;;;;;;;;;345556;155;866512;-65
2022/07/11 06:06:46;;;;;;;4.01;0.60;;;;;;;;;;353244;150;856895;-69
2022/07/11 06:09:08;;;;;;;1.28;0.74;;;;;;;;;;349883;152;864867;-68
2022/07/11 06:10:12;;;;;;;4.72;1.49;;;;;;;;;;345018;155;858854;-67
2022/07/11 06:11:14;;;;;;;1.40;1.04;;;;;;;;;;352759;152;857310;-67
2022/07/11 06:12:16;;;;;;;1.41;0.53;;;;;;;;;;345197;155;864833;-70